Terminal Aerodrome Forecast
Issued by NWS

Home | Current Version | Previous Version | Text Only | Print | Product List | Glossary On
Versions: 1 2 3 4 5 6 7 8 9 10 11 12
000
FTUS42 TJSJ 221720
TAFNCM
TAF
TNCM 221720Z 2218/2318 11012KT P6SM FEW022 SCT040
     FM222330 09007KT P6SM VCSH SCT019 BKN050
     FM231450 11012KT P6SM SCT022 SCT060=

USA.gov is the U.S. government's official web portal to all federal, state and local government web resources and services.